createdAt,value
2023-01-30T00:35:35.756Z,93.7
2023-01-30T00:55:35.703Z,94.1
2023-01-30T01:15:35.701Z,94.4
2023-01-30T01:35:35.670Z,96.5
2023-01-30T01:55:35.629Z,97.1
2023-01-30T02:15:35.608Z,97.7
2023-01-30T02:35:35.581Z,97.7
2023-01-30T02:55:35.565Z,97.2
2023-01-30T03:15:35.567Z,96.4
2023-01-30T03:35:35.509Z,96.1
2023-01-30T04:15:35.457Z,97.3
2023-01-30T04:55:35.406Z,98.2
2023-01-30T05:15:35.409Z,98.3
2023-01-30T05:35:35.323Z,98.5
2023-01-30T05:55:35.281Z,99
2023-01-30T06:15:42.297Z,99
2023-01-30T08:35:35.038Z,84.9
2023-01-30T08:55:35.025Z,83.6
2023-01-30T09:35:34.951Z,80.9
2023-01-30T09:55:34.928Z,80.9
2023-01-30T10:15:34.899Z,79.5
2023-01-30T10:35:34.874Z,78.6
2023-01-30T10:55:37.835Z,77.8
2023-01-30T11:15:34.808Z,77.7
2023-01-30T11:35:34.779Z,77.4
2023-01-30T11:55:34.753Z,77.2
2023-01-30T12:15:34.700Z,79.6
2023-01-30T12:35:34.672Z,76
2023-01-30T12:55:34.636Z,73
2023-01-30T13:15:34.807Z,69.8
2023-01-30T13:35:34.605Z,65.8
2023-01-30T13:55:34.545Z,65.5
2023-01-30T14:55:34.437Z,77.5
2023-01-30T16:35:34.393Z,72.8
2023-01-30T16:55:34.254Z,72.8
2023-01-30T17:15:34.283Z,72.7
2023-01-30T17:35:34.200Z,74
2023-01-30T17:55:34.157Z,75.6
2023-01-30T19:15:34.054Z,80.4
2023-01-30T19:35:34.028Z,81.7
2023-01-30T19:55:33.990Z,82.7
2023-01-30T20:15:33.942Z,83.6
2023-01-30T20:35:34.733Z,84.6
2023-01-30T20:55:33.893Z,86
2023-01-30T21:15:33.913Z,87
2023-01-30T21:35:33.833Z,87.6
2023-01-30T21:55:33.820Z,87.8
2023-01-30T22:15:33.788Z,88.5
2023-01-30T22:35:33.771Z,89.6
2023-01-30T23:35:33.683Z,92.7
2023-01-30T23:55:33.658Z,92.8
